sensor_id;sensor_type;location;lat;lon;timestamp;P1;durP1;ratioP1;P2;durP2;ratioP2
25810;SDS011;13645;52.460;13.910;2022-12-26T00:02:04;22.08;;;11.13;;
25810;SDS011;13645;52.460;13.910;2022-12-26T00:04:31;20.20;;;10.20;;
25810;SDS011;13645;52.460;13.910;2022-12-26T00:07:17;21.27;;;10.13;;
25810;SDS011;13645;52.460;13.910;2022-12-26T00:09:44;21.00;;;9.75;;
25810;SDS011;13645;52.460;13.910;2022-12-26T00:12:11;15.82;;;10.00;;
25810;SDS011;13645;52.460;13.910;2022-12-26T00:14:38;18.25;;;10.02;;
25810;SDS011;13645;52.460;13.910;2022-12-26T00:17:05;14.25;;;9.80;;
25810;SDS011;13645;52.460;13.910;2022-12-26T00:19:32;20.02;;;9.90;;
25810;SDS011;13645;52.460;13.910;2022-12-26T00:21:58;20.05;;;9.75;;
25810;SDS011;13645;52.460;13.910;2022-12-26T00:24:25;21.15;;;10.00;;
25810;SDS011;13645;52.460;13.910;2022-12-26T00:26:52;16.50;;;9.73;;
25810;SDS011;13645;52.460;13.910;2022-12-26T00:29:18;15.40;;;9.07;;
25810;SDS011;13645;52.460;13.910;2022-12-26T00:31:45;15.07;;;9.45;;
25810;SDS011;13645;52.460;13.910;2022-12-26T00:34:12;17.42;;;8.93;;
25810;SDS011;13645;52.460;13.910;2022-12-26T00:36:39;17.90;;;8.90;;
25810;SDS011;13645;52.460;13.910;2022-12-26T00:39:05;14.02;;;8.50;;
25810;SDS011;13645;52.460;13.910;2022-12-26T00:41:32;16.15;;;9.38;;
25810;SDS011;13645;52.460;13.910;2022-12-26T00:43:59;17.45;;;9.15;;
25810;SDS011;13645;52.460;13.910;2022-12-26T00:46:26;15.18;;;8.82;;
25810;SDS011;13645;52.460;13.910;2022-12-26T00:48:53;15.85;;;8.57;;
25810;SDS011;13645;52.460;13.910;2022-12-26T00:51:20;13.80;;;8.43;;
25810;SDS011;13645;52.460;13.910;2022-12-26T00:53:47;15.55;;;8.50;;
25810;SDS011;13645;52.460;13.910;2022-12-26T00:56:14;13.52;;;7.43;;
25810;SDS011;13645;52.460;13.910;2022-12-26T00:58:41;14.55;;;7.70;;
25810;SDS011;13645;52.460;13.910;2022-12-26T01:01:10;16.05;;;7.68;;
25810;SDS011;13645;52.460;13.910;2022-12-26T01:03:40;10.93;;;7.38;;
25810;SDS011;13645;52.460;13.910;2022-12-26T01:06:08;16.67;;;7.93;;
25810;SDS011;13645;52.460;13.910;2022-12-26T01:08:35;15.35;;;7.55;;
25810;SDS011;13645;52.460;13.910;2022-12-26T01:11:06;13.02;;;6.97;;
25810;SDS011;13645;52.460;13.910;2022-12-26T01:13:34;14.32;;;6.93;;
25810;SDS011;13645;52.460;13.910;2022-12-26T01:16:02;12.30;;;6.90;;
25810;SDS011;13645;52.460;13.910;2022-12-26T01:18:30;13.95;;;6.80;;
25810;SDS011;13645;52.460;13.910;2022-12-26T01:20:59;13.20;;;6.82;;
25810;SDS011;13645;52.460;13.910;2022-12-26T01:23:27;11.05;;;6.65;;
25810;SDS011;13645;52.460;13.910;2022-12-26T01:25:54;11.20;;;6.55;;
25810;SDS011;13645;52.460;13.910;2022-12-26T01:28:41;9.00;;;6.05;;
25810;SDS011;13645;52.460;13.910;2022-12-26T01:31:08;15.40;;;6.38;;
25810;SDS011;13645;52.460;13.910;2022-12-26T01:33:35;13.18;;;6.22;;
25810;SDS011;13645;52.460;13.910;2022-12-26T01:36:01;11.50;;;6.45;;
25810;SDS011;13645;52.460;13.910;2022-12-26T01:38:28;11.63;;;6.00;;
25810;SDS011;13645;52.460;13.910;2022-12-26T01:40:55;11.98;;;5.93;;
25810;SDS011;13645;52.460;13.910;2022-12-26T01:44:53;9.73;;;6.35;;
25810;SDS011;13645;52.460;13.910;2022-12-26T01:46:51;10.18;;;5.93;;
25810;SDS011;13645;52.460;13.910;2022-12-26T01:49:20;9.85;;;5.90;;
25810;SDS011;13645;52.460;13.910;2022-12-26T01:52:04;12.27;;;6.07;;
25810;SDS011;13645;52.460;13.910;2022-12-26T01:54:34;12.13;;;6.10;;
25810;SDS011;13645;52.460;13.910;2022-12-26T01:57:12;12.27;;;6.43;;
25810;SDS011;13645;52.460;13.910;2022-12-26T01:59:44;9.48;;;5.75;;
25810;SDS011;13645;52.460;13.910;2022-12-26T02:02:13;10.18;;;5.90;;
25810;SDS011;13645;52.460;13.910;2022-12-26T02:04:43;11.27;;;6.03;;
25810;SDS011;13645;52.460;13.910;2022-12-26T02:07:35;8.02;;;5.55;;
25810;SDS011;13645;52.460;13.910;2022-12-26T02:10:06;9.90;;;5.85;;
25810;SDS011;13645;52.460;13.910;2022-12-26T02:12:38;11.60;;;5.68;;
25810;SDS011;13645;52.460;13.910;2022-12-26T02:15:11;15.43;;;6.00;;
25810;SDS011;13645;52.460;13.910;2022-12-26T02:17:41;11.30;;;5.75;;
25810;SDS011;13645;52.460;13.910;2022-12-26T02:20:24;9.60;;;5.35;;
25810;SDS011;13645;52.460;13.910;2022-12-26T02:36:35;10.68;;;5.65;;
25810;SDS011;13645;52.460;13.910;2022-12-26T02:47:35;8.60;;;5.03;;
25810;SDS011;13645;52.460;13.910;2022-12-26T02:53:24;8.45;;;4.93;;
25810;SDS011;13645;52.460;13.910;2022-12-26T02:56:41;9.25;;;4.95;;
25810;SDS011;13645;52.460;13.910;2022-12-26T02:59:33;8.60;;;5.18;;
25810;SDS011;13645;52.460;13.910;2022-12-26T03:02:39;7.88;;;4.65;;
25810;SDS011;13645;52.460;13.910;2022-12-26T03:05:32;8.63;;;4.68;;
25810;SDS011;13645;52.460;13.910;2022-12-26T03:08:35;7.35;;;4.43;;
25810;SDS011;13645;52.460;13.910;2022-12-26T03:11:43;8.60;;;4.88;;
25810;SDS011;13645;52.460;13.910;2022-12-26T03:14:35;12.18;;;5.10;;
25810;SDS011;13645;52.460;13.910;2022-12-26T03:17:07;6.25;;;4.40;;
25810;SDS011;13645;52.460;13.910;2022-12-26T03:19:46;9.52;;;4.80;;
25810;SDS011;13645;52.460;13.910;2022-12-26T03:22:37;7.18;;;4.72;;
25810;SDS011;13645;52.460;13.910;2022-12-26T03:28:35;5.50;;;4.20;;
25810;SDS011;13645;52.460;13.910;2022-12-26T03:31:07;8.15;;;4.72;;
25810;SDS011;13645;52.460;13.910;2022-12-26T03:33:38;9.70;;;4.68;;
25810;SDS011;13645;52.460;13.910;2022-12-26T03:42:46;12.45;;;4.43;;
25810;SDS011;13645;52.460;13.910;2022-12-26T03:48:55;9.60;;;4.80;;
25810;SDS011;13645;52.460;13.910;2022-12-26T03:51:55;8.30;;;3.92;;
25810;SDS011;13645;52.460;13.910;2022-12-26T03:57:53;6.20;;;4.13;;
25810;SDS011;13645;52.460;13.910;2022-12-26T04:00:46;10.38;;;4.50;;
25810;SDS011;13645;52.460;13.910;2022-12-26T04:03:35;8.75;;;4.10;;
25810;SDS011;13645;52.460;13.910;2022-12-26T04:06:24;6.85;;;4.32;;
25810;SDS011;13645;52.460;13.910;2022-12-26T04:09:17;6.45;;;4.10;;
25810;SDS011;13645;52.460;13.910;2022-12-26T04:12:08;6.72;;;4.00;;
25810;SDS011;13645;52.460;13.910;2022-12-26T04:15:04;7.78;;;3.75;;
25810;SDS011;13645;52.460;13.910;2022-12-26T04:18:04;5.03;;;3.63;;
25810;SDS011;13645;52.460;13.910;2022-12-26T04:24:16;7.70;;;4.00;;
25810;SDS011;13645;52.460;13.910;2022-12-26T04:27:07;4.87;;;3.60;;
25810;SDS011;13645;52.460;13.910;2022-12-26T04:29:56;4.88;;;3.60;;
25810;SDS011;13645;52.460;13.910;2022-12-26T04:32:43;5.45;;;3.58;;
25810;SDS011;13645;52.460;13.910;2022-12-26T04:38:22;10.05;;;3.65;;
25810;SDS011;13645;52.460;13.910;2022-12-26T04:41:13;5.75;;;3.50;;
25810;SDS011;13645;52.460;13.910;2022-12-26T04:44:01;4.90;;;3.42;;
25810;SDS011;13645;52.460;13.910;2022-12-26T04:46:41;5.97;;;3.60;;
25810;SDS011;13645;52.460;13.910;2022-12-26T04:49:12;8.80;;;4.05;;
25810;SDS011;13645;52.460;13.910;2022-12-26T04:51:59;5.18;;;3.67;;
25810;SDS011;13645;52.460;13.910;2022-12-26T04:54:28;7.40;;;3.25;;
25810;SDS011;13645;52.460;13.910;2022-12-26T04:56:55;5.93;;;3.53;;
25810;SDS011;13645;52.460;13.910;2022-12-26T04:59:22;8.02;;;3.53;;
25810;SDS011;13645;52.460;13.910;2022-12-26T05:01:48;10.30;;;4.07;;
25810;SDS011;13645;52.460;13.910;2022-12-26T05:04:35;8.20;;;3.70;;
25810;SDS011;13645;52.460;13.910;2022-12-26T05:07:22;5.38;;;3.65;;
25810;SDS011;13645;52.460;13.910;2022-12-26T05:10:12;7.15;;;3.63;;
25810;SDS011;13645;52.460;13.910;2022-12-26T05:12:51;6.57;;;3.80;;
25810;SDS011;13645;52.460;13.910;2022-12-26T05:15:19;7.32;;;3.60;;
25810;SDS011;13645;52.460;13.910;2022-12-26T05:17:46;7.97;;;3.50;;
25810;SDS011;13645;52.460;13.910;2022-12-26T05:20:31;5.65;;;3.50;;
25810;SDS011;13645;52.460;13.910;2022-12-26T05:23:21;9.18;;;4.10;;
25810;SDS011;13645;52.460;13.910;2022-12-26T05:26:14;6.38;;;3.60;;
25810;SDS011;13645;52.460;13.910;2022-12-26T05:29:04;9.05;;;4.10;;
25810;SDS011;13645;52.460;13.910;2022-12-26T05:31:31;7.22;;;4.00;;
25810;SDS011;13645;52.460;13.910;2022-12-26T05:34:02;8.55;;;3.75;;
25810;SDS011;13645;52.460;13.910;2022-12-26T05:37:10;5.72;;;3.60;;
25810;SDS011;13645;52.460;13.910;2022-12-26T05:39:30;5.78;;;3.83;;
25810;SDS011;13645;52.460;13.910;2022-12-26T05:41:57;8.88;;;3.80;;
25810;SDS011;13645;52.460;13.910;2022-12-26T05:44:24;6.05;;;4.07;;
25810;SDS011;13645;52.460;13.910;2022-12-26T05:46:50;9.20;;;4.03;;
25810;SDS011;13645;52.460;13.910;2022-12-26T05:49:17;7.60;;;3.92;;
25810;SDS011;13645;52.460;13.910;2022-12-26T05:51:44;5.65;;;3.35;;
25810;SDS011;13645;52.460;13.910;2022-12-26T05:54:10;6.30;;;3.50;;
25810;SDS011;13645;52.460;13.910;2022-12-26T05:56:37;5.45;;;3.53;;
25810;SDS011;13645;52.460;13.910;2022-12-26T05:59:10;7.82;;;3.88;;
25810;SDS011;13645;52.460;13.910;2022-12-26T06:01:37;5.03;;;3.97;;
25810;SDS011;13645;52.460;13.910;2022-12-26T06:04:04;5.63;;;3.63;;
25810;SDS011;13645;52.460;13.910;2022-12-26T06:06:31;4.63;;;3.03;;
25810;SDS011;13645;52.460;13.910;2022-12-26T06:08:57;5.13;;;3.50;;
25810;SDS011;13645;52.460;13.910;2022-12-26T06:11:24;6.68;;;3.97;;
25810;SDS011;13645;52.460;13.910;2022-12-26T06:13:52;5.55;;;3.10;;
25810;SDS011;13645;52.460;13.910;2022-12-26T06:16:19;7.13;;;3.45;;
25810;SDS011;13645;52.460;13.910;2022-12-26T06:18:46;4.53;;;3.17;;
25810;SDS011;13645;52.460;13.910;2022-12-26T06:21:16;5.85;;;3.05;;
25810;SDS011;13645;52.460;13.910;2022-12-26T06:23:44;5.03;;;3.38;;
25810;SDS011;13645;52.460;13.910;2022-12-26T06:26:11;7.57;;;3.92;;
25810;SDS011;13645;52.460;13.910;2022-12-26T06:28:38;4.60;;;3.58;;
25810;SDS011;13645;52.460;13.910;2022-12-26T06:31:17;5.22;;;3.20;;
25810;SDS011;13645;52.460;13.910;2022-12-26T06:33:48;6.20;;;3.30;;
25810;SDS011;13645;52.460;13.910;2022-12-26T06:36:17;4.60;;;3.20;;
25810;SDS011;13645;52.460;13.910;2022-12-26T06:38:45;4.85;;;3.22;;
25810;SDS011;13645;52.460;13.910;2022-12-26T06:41:13;6.93;;;3.40;;
25810;SDS011;13645;52.460;13.910;2022-12-26T06:43:43;6.13;;;3.00;;
25810;SDS011;13645;52.460;13.910;2022-12-26T06:46:15;6.13;;;3.78;;
25810;SDS011;13645;52.460;13.910;2022-12-26T06:48:43;4.85;;;3.05;;
25810;SDS011;13645;52.460;13.910;2022-12-26T06:51:12;5.32;;;3.00;;
25810;SDS011;13645;52.460;13.910;2022-12-26T06:53:41;7.15;;;3.20;;
25810;SDS011;13645;52.460;13.910;2022-12-26T06:56:09;4.95;;;3.20;;
25810;SDS011;13645;52.460;13.910;2022-12-26T06:58:38;6.45;;;3.15;;
25810;SDS011;13645;52.460;13.910;2022-12-26T07:01:05;6.38;;;3.50;;
25810;SDS011;13645;52.460;13.910;2022-12-26T07:03:34;6.90;;;3.10;;
25810;SDS011;13645;52.460;13.910;2022-12-26T07:06:02;5.55;;;3.35;;
25810;SDS011;13645;52.460;13.910;2022-12-26T07:08:33;4.63;;;3.00;;
25810;SDS011;13645;52.460;13.910;2022-12-26T07:11:00;5.50;;;3.30;;
25810;SDS011;13645;52.460;13.910;2022-12-26T07:13:27;4.30;;;2.75;;
25810;SDS011;13645;52.460;13.910;2022-12-26T07:15:53;5.50;;;3.28;;
25810;SDS011;13645;52.460;13.910;2022-12-26T07:18:23;5.40;;;2.92;;
25810;SDS011;13645;52.460;13.910;2022-12-26T07:20:50;6.50;;;2.83;;
25810;SDS011;13645;52.460;13.910;2022-12-26T07:23:17;4.88;;;2.60;;
25810;SDS011;13645;52.460;13.910;2022-12-26T07:25:45;3.88;;;2.78;;
25810;SDS011;13645;52.460;13.910;2022-12-26T07:28:14;3.50;;;2.47;;
25810;SDS011;13645;52.460;13.910;2022-12-26T07:30:47;6.28;;;2.70;;
25810;SDS011;13645;52.460;13.910;2022-12-26T07:35:41;5.60;;;2.67;;
25810;SDS011;13645;52.460;13.910;2022-12-26T07:38:09;6.80;;;2.80;;
25810;SDS011;13645;52.460;13.910;2022-12-26T07:40:36;4.70;;;2.58;;
25810;SDS011;13645;52.460;13.910;2022-12-26T07:43:03;4.07;;;2.85;;
25810;SDS011;13645;52.460;13.910;2022-12-26T07:45:30;4.47;;;2.75;;
25810;SDS011;13645;52.460;13.910;2022-12-26T07:47:57;4.78;;;2.47;;
25810;SDS011;13645;52.460;13.910;2022-12-26T07:50:24;2.97;;;2.35;;
25810;SDS011;13645;52.460;13.910;2022-12-26T07:52:52;7.18;;;2.65;;
25810;SDS011;13645;52.460;13.910;2022-12-26T07:55:20;4.72;;;2.10;;
25810;SDS011;13645;52.460;13.910;2022-12-26T07:57:50;3.13;;;2.55;;
25810;SDS011;13645;52.460;13.910;2022-12-26T08:00:18;8.10;;;2.85;;
25810;SDS011;13645;52.460;13.910;2022-12-26T08:02:48;3.80;;;2.58;;
25810;SDS011;13645;52.460;13.910;2022-12-26T08:05:16;4.57;;;2.75;;
25810;SDS011;13645;52.460;13.910;2022-12-26T08:07:46;5.00;;;2.97;;
25810;SDS011;13645;52.460;13.910;2022-12-26T08:10:14;3.50;;;2.90;;
25810;SDS011;13645;52.460;13.910;2022-12-26T08:12:42;6.20;;;3.08;;
25810;SDS011;13645;52.460;13.910;2022-12-26T08:15:10;4.45;;;2.78;;
25810;SDS011;13645;52.460;13.910;2022-12-26T08:17:37;3.92;;;2.78;;
25810;SDS011;13645;52.460;13.910;2022-12-26T08:20:04;4.70;;;2.60;;
25810;SDS011;13645;52.460;13.910;2022-12-26T08:22:31;5.28;;;2.85;;
25810;SDS011;13645;52.460;13.910;2022-12-26T08:24:58;5.50;;;2.65;;
25810;SDS011;13645;52.460;13.910;2022-12-26T08:27:25;5.70;;;2.90;;
25810;SDS011;13645;52.460;13.910;2022-12-26T08:29:52;5.38;;;2.90;;
25810;SDS011;13645;52.460;13.910;2022-12-26T08:32:18;5.28;;;3.00;;
25810;SDS011;13645;52.460;13.910;2022-12-26T08:34:45;7.05;;;2.90;;
25810;SDS011;13645;52.460;13.910;2022-12-26T08:37:12;3.95;;;3.08;;
25810;SDS011;13645;52.460;13.910;2022-12-26T08:39:39;5.10;;;2.85;;
25810;SDS011;13645;52.460;13.910;2022-12-26T08:42:05;4.53;;;3.00;;
25810;SDS011;13645;52.460;13.910;2022-12-26T08:44:32;4.95;;;3.10;;
25810;SDS011;13645;52.460;13.910;2022-12-26T08:46:59;4.15;;;3.15;;
25810;SDS011;13645;52.460;13.910;2022-12-26T08:49:26;4.40;;;2.90;;
25810;SDS011;13645;52.460;13.910;2022-12-26T08:51:52;4.32;;;2.90;;
25810;SDS011;13645;52.460;13.910;2022-12-26T08:54:19;5.00;;;2.80;;
25810;SDS011;13645;52.460;13.910;2022-12-26T08:56:46;5.75;;;3.13;;
25810;SDS011;13645;52.460;13.910;2022-12-26T08:59:13;5.70;;;2.90;;
25810;SDS011;13645;52.460;13.910;2022-12-26T09:01:40;4.60;;;3.33;;
25810;SDS011;13645;52.460;13.910;2022-12-26T09:04:07;14.80;;;8.13;;
25810;SDS011;13645;52.460;13.910;2022-12-26T09:06:34;8.50;;;5.88;;
25810;SDS011;13645;52.460;13.910;2022-12-26T09:09:03;4.15;;;3.25;;
25810;SDS011;13645;52.460;13.910;2022-12-26T09:11:31;4.57;;;2.97;;
25810;SDS011;13645;52.460;13.910;2022-12-26T09:14:00;4.78;;;3.20;;
25810;SDS011;13645;52.460;13.910;2022-12-26T09:16:29;4.93;;;3.30;;
25810;SDS011;13645;52.460;13.910;2022-12-26T09:19:03;5.85;;;3.50;;
25810;SDS011;13645;52.460;13.910;2022-12-26T09:21:31;5.18;;;3.03;;
25810;SDS011;13645;52.460;13.910;2022-12-26T09:23:58;6.45;;;3.10;;
25810;SDS011;13645;52.460;13.910;2022-12-26T09:26:28;5.43;;;3.15;;
25810;SDS011;13645;52.460;13.910;2022-12-26T09:28:55;7.22;;;3.80;;
25810;SDS011;13645;52.460;13.910;2022-12-26T09:31:23;6.20;;;3.65;;
25810;SDS011;13645;52.460;13.910;2022-12-26T09:33:51;7.90;;;3.65;;
25810;SDS011;13645;52.460;13.910;2022-12-26T09:36:20;6.57;;;3.25;;
25810;SDS011;13645;52.460;13.910;2022-12-26T09:38:49;5.43;;;3.45;;
25810;SDS011;13645;52.460;13.910;2022-12-26T09:49:47;5.32;;;3.35;;
25810;SDS011;13645;52.460;13.910;2022-12-26T09:52:21;5.95;;;3.08;;
25810;SDS011;13645;52.460;13.910;2022-12-26T09:57:58;4.78;;;3.10;;
25810;SDS011;13645;52.460;13.910;2022-12-26T10:00:32;4.93;;;3.00;;
25810;SDS011;13645;52.460;13.910;2022-12-26T10:03:04;4.68;;;2.75;;
25810;SDS011;13645;52.460;13.910;2022-12-26T10:05:35;5.18;;;3.22;;
25810;SDS011;13645;52.460;13.910;2022-12-26T10:11:11;6.13;;;3.10;;
25810;SDS011;13645;52.460;13.910;2022-12-26T10:14:31;3.88;;;2.95;;
25810;SDS011;13645;52.460;13.910;2022-12-26T10:19:38;5.72;;;2.72;;
25810;SDS011;13645;52.460;13.910;2022-12-26T10:25:16;7.20;;;2.88;;
25810;SDS011;13645;52.460;13.910;2022-12-26T10:28:03;8.43;;;2.95;;
25810;SDS011;13645;52.460;13.910;2022-12-26T10:30:35;3.83;;;2.80;;
25810;SDS011;13645;52.460;13.910;2022-12-26T10:33:17;5.53;;;2.88;;
25810;SDS011;13645;52.460;13.910;2022-12-26T10:35:49;8.23;;;3.35;;
25810;SDS011;13645;52.460;13.910;2022-12-26T10:38:31;5.65;;;2.65;;
25810;SDS011;13645;52.460;13.910;2022-12-26T10:41:09;7.93;;;2.80;;
25810;SDS011;13645;52.460;13.910;2022-12-26T10:43:48;6.10;;;2.77;;
25810;SDS011;13645;52.460;13.910;2022-12-26T10:46:26;3.72;;;2.60;;
25810;SDS011;13645;52.460;13.910;2022-12-26T10:49:14;4.88;;;2.85;;
25810;SDS011;13645;52.460;13.910;2022-12-26T10:51:43;5.03;;;2.90;;
25810;SDS011;13645;52.460;13.910;2022-12-26T10:54:14;4.95;;;2.35;;
25810;SDS011;13645;52.460;13.910;2022-12-26T10:56:43;3.92;;;2.80;;
25810;SDS011;13645;52.460;13.910;2022-12-26T10:59:17;3.63;;;2.40;;
25810;SDS011;13645;52.460;13.910;2022-12-26T11:01:47;3.88;;;2.58;;
25810;SDS011;13645;52.460;13.910;2022-12-26T11:04:17;3.05;;;2.20;;
25810;SDS011;13645;52.460;13.910;2022-12-26T11:07:11;2.90;;;2.25;;
25810;SDS011;13645;52.460;13.910;2022-12-26T11:09:43;7.25;;;2.25;;
25810;SDS011;13645;52.460;13.910;2022-12-26T11:12:21;3.03;;;2.22;;
25810;SDS011;13645;52.460;13.910;2022-12-26T11:14:59;3.85;;;2.10;;
25810;SDS011;13645;52.460;13.910;2022-12-26T11:17:30;4.45;;;2.30;;
25810;SDS011;13645;52.460;13.910;2022-12-26T11:22:43;2.42;;;2.10;;
25810;SDS011;13645;52.460;13.910;2022-12-26T11:25:12;4.80;;;2.20;;
25810;SDS011;13645;52.460;13.910;2022-12-26T11:27:51;2.40;;;2.10;;
25810;SDS011;13645;52.460;13.910;2022-12-26T11:30:29;3.42;;;2.25;;
25810;SDS011;13645;52.460;13.910;2022-12-26T11:36:17;4.97;;;2.20;;
25810;SDS011;13645;52.460;13.910;2022-12-26T11:38:52;5.10;;;2.20;;
25810;SDS011;13645;52.460;13.910;2022-12-26T11:51:49;2.50;;;1.88;;
25810;SDS011;13645;52.460;13.910;2022-12-26T11:54:28;3.80;;;2.03;;
25810;SDS011;13645;52.460;13.910;2022-12-26T11:57:22;2.72;;;1.95;;
25810;SDS011;13645;52.460;13.910;2022-12-26T11:59:54;4.00;;;1.67;;
25810;SDS011;13645;52.460;13.910;2022-12-26T12:02:39;2.70;;;1.88;;
25810;SDS011;13645;52.460;13.910;2022-12-26T12:05:14;2.55;;;1.73;;
25810;SDS011;13645;52.460;13.910;2022-12-26T12:13:30;3.95;;;1.77;;
25810;SDS011;13645;52.460;13.910;2022-12-26T12:16:29;2.10;;;1.85;;
25810;SDS011;13645;52.460;13.910;2022-12-26T12:19:31;3.28;;;1.95;;
25810;SDS011;13645;52.460;13.910;2022-12-26T12:24:50;2.78;;;1.77;;
25810;SDS011;13645;52.460;13.910;2022-12-26T12:27:42;2.25;;;1.92;;
25810;SDS011;13645;52.460;13.910;2022-12-26T12:30:19;3.03;;;2.15;;
25810;SDS011;13645;52.460;13.910;2022-12-26T12:36:12;2.83;;;2.00;;
25810;SDS011;13645;52.460;13.910;2022-12-26T12:42:12;4.53;;;2.47;;
25810;SDS011;13645;52.460;13.910;2022-12-26T12:59:29;3.65;;;2.42;;
25810;SDS011;13645;52.460;13.910;2022-12-26T13:02:24;6.32;;;2.95;;
25810;SDS011;13645;52.460;13.910;2022-12-26T13:08:05;3.97;;;2.53;;
25810;SDS011;13645;52.460;13.910;2022-12-26T13:10:54;2.65;;;2.33;;
25810;SDS011;13645;52.460;13.910;2022-12-26T13:13:32;4.13;;;2.90;;
25810;SDS011;13645;52.460;13.910;2022-12-26T13:16:09;5.95;;;3.17;;
25810;SDS011;13645;52.460;13.910;2022-12-26T13:18:41;3.75;;;3.00;;
25810;SDS011;13645;52.460;13.910;2022-12-26T13:21:17;6.63;;;3.10;;
25810;SDS011;13645;52.460;13.910;2022-12-26T13:23:47;5.75;;;3.13;;
25810;SDS011;13645;52.460;13.910;2022-12-26T13:26:38;4.00;;;2.85;;
25810;SDS011;13645;52.460;13.910;2022-12-26T13:29:14;3.40;;;2.63;;
25810;SDS011;13645;52.460;13.910;2022-12-26T13:31:45;5.30;;;2.95;;
25810;SDS011;13645;52.460;13.910;2022-12-26T13:34:16;5.28;;;3.20;;
25810;SDS011;13645;52.460;13.910;2022-12-26T13:36:45;4.70;;;3.20;;
25810;SDS011;13645;52.460;13.910;2022-12-26T13:41:54;4.88;;;3.10;;
25810;SDS011;13645;52.460;13.910;2022-12-26T13:44:42;3.28;;;2.90;;
25810;SDS011;13645;52.460;13.910;2022-12-26T13:47:32;3.28;;;2.42;;
25810;SDS011;13645;52.460;13.910;2022-12-26T13:50:44;7.38;;;3.55;;
25810;SDS011;13645;52.460;13.910;2022-12-26T13:55:50;3.83;;;2.75;;
25810;SDS011;13645;52.460;13.910;2022-12-26T13:59:00;5.18;;;2.70;;
25810;SDS011;13645;52.460;13.910;2022-12-26T14:06:56;3.53;;;2.65;;
25810;SDS011;13645;52.460;13.910;2022-12-26T14:09:38;4.35;;;2.70;;
25810;SDS011;13645;52.460;13.910;2022-12-26T14:18:04;4.57;;;2.90;;
25810;SDS011;13645;52.460;13.910;2022-12-26T14:20:52;4.68;;;2.72;;
25810;SDS011;13645;52.460;13.910;2022-12-26T14:34:32;8.82;;;5.50;;
25810;SDS011;13645;52.460;13.910;2022-12-26T14:37:19;9.13;;;4.68;;
25810;SDS011;13645;52.460;13.910;2022-12-26T14:42:23;22.55;;;11.05;;
25810;SDS011;13645;52.460;13.910;2022-12-26T14:45:52;15.52;;;8.38;;
25810;SDS011;13645;52.460;13.910;2022-12-26T14:47:59;14.73;;;9.63;;
25810;SDS011;13645;52.460;13.910;2022-12-26T14:58:42;5.18;;;3.60;;
25810;SDS011;13645;52.460;13.910;2022-12-26T15:03:43;7.97;;;4.03;;
25810;SDS011;13645;52.460;13.910;2022-12-26T15:11:53;5.78;;;3.70;;
25810;SDS011;13645;52.460;13.910;2022-12-26T15:17:20;7.05;;;3.60;;
25810;SDS011;13645;52.460;13.910;2022-12-26T15:23:06;4.45;;;3.47;;
25810;SDS011;13645;52.460;13.910;2022-12-26T15:31:13;6.90;;;3.95;;
25810;SDS011;13645;52.460;13.910;2022-12-26T15:37:03;8.77;;;4.30;;
25810;SDS011;13645;52.460;13.910;2022-12-26T15:39:47;7.25;;;3.95;;
25810;SDS011;13645;52.460;13.910;2022-12-26T15:45:33;7.75;;;4.10;;
25810;SDS011;13645;52.460;13.910;2022-12-26T15:51:05;5.45;;;4.00;;
25810;SDS011;13645;52.460;13.910;2022-12-26T15:53:45;5.45;;;3.88;;
25810;SDS011;13645;52.460;13.910;2022-12-26T16:01:43;8.30;;;3.95;;
25810;SDS011;13645;52.460;13.910;2022-12-26T16:04:14;5.45;;;3.88;;
25810;SDS011;13645;52.460;13.910;2022-12-26T16:07:06;6.85;;;4.05;;
25810;SDS011;13645;52.460;13.910;2022-12-26T16:09:45;5.88;;;3.63;;
25810;SDS011;13645;52.460;13.910;2022-12-26T16:12:22;8.38;;;4.03;;
25810;SDS011;13645;52.460;13.910;2022-12-26T16:17:50;8.05;;;4.28;;
25810;SDS011;13645;52.460;13.910;2022-12-26T16:23:13;7.28;;;3.75;;
25810;SDS011;13645;52.460;13.910;2022-12-26T16:28:16;5.97;;;3.63;;
25810;SDS011;13645;52.460;13.910;2022-12-26T16:30:48;5.65;;;3.45;;
25810;SDS011;13645;52.460;13.910;2022-12-26T16:33:15;5.30;;;3.60;;
25810;SDS011;13645;52.460;13.910;2022-12-26T16:35:42;8.77;;;3.45;;
25810;SDS011;13645;52.460;13.910;2022-12-26T16:38:20;4.20;;;2.88;;
25810;SDS011;13645;52.460;13.910;2022-12-26T16:40:50;5.30;;;3.38;;
25810;SDS011;13645;52.460;13.910;2022-12-26T16:45:45;3.70;;;2.75;;
25810;SDS011;13645;52.460;13.910;2022-12-26T16:48:17;4.97;;;2.60;;
25810;SDS011;13645;52.460;13.910;2022-12-26T16:50:47;5.40;;;2.90;;
25810;SDS011;13645;52.460;13.910;2022-12-26T16:53:20;3.47;;;2.35;;
25810;SDS011;13645;52.460;13.910;2022-12-26T16:59:11;4.38;;;2.88;;
25810;SDS011;13645;52.460;13.910;2022-12-26T17:01:50;3.47;;;2.35;;
25810;SDS011;13645;52.460;13.910;2022-12-26T17:04:22;7.45;;;2.58;;
25810;SDS011;13645;52.460;13.910;2022-12-26T17:06:55;3.72;;;2.05;;
25810;SDS011;13645;52.460;13.910;2022-12-26T17:09:31;1.85;;;1.40;;
25810;SDS011;13645;52.460;13.910;2022-12-26T17:12:43;2.65;;;1.60;;
25810;SDS011;13645;52.460;13.910;2022-12-26T17:15:04;4.93;;;1.60;;
25810;SDS011;13645;52.460;13.910;2022-12-26T17:17:33;5.25;;;1.85;;
25810;SDS011;13645;52.460;13.910;2022-12-26T17:22:47;4.22;;;1.23;;
25810;SDS011;13645;52.460;13.910;2022-12-26T17:30:34;2.20;;;1.70;;
25810;SDS011;13645;52.460;13.910;2022-12-26T17:33:14;2.40;;;1.27;;
25810;SDS011;13645;52.460;13.910;2022-12-26T17:35:51;3.97;;;1.90;;
25810;SDS011;13645;52.460;13.910;2022-12-26T17:38:49;2.92;;;1.10;;
25810;SDS011;13645;52.460;13.910;2022-12-26T17:41:16;2.95;;;1.40;;
25810;SDS011;13645;52.460;13.910;2022-12-26T17:43:44;5.68;;;1.67;;
25810;SDS011;13645;52.460;13.910;2022-12-26T17:46:13;2.78;;;1.30;;
25810;SDS011;13645;52.460;13.910;2022-12-26T17:48:42;2.45;;;1.20;;
25810;SDS011;13645;52.460;13.910;2022-12-26T17:51:14;1.65;;;1.20;;
25810;SDS011;13645;52.460;13.910;2022-12-26T17:53:45;8.23;;;1.50;;
25810;SDS011;13645;52.460;13.910;2022-12-26T17:56:15;1.67;;;1.17;;
25810;SDS011;13645;52.460;13.910;2022-12-26T17:58:46;1.98;;;1.23;;
25810;SDS011;13645;52.460;13.910;2022-12-26T18:01:14;4.25;;;1.10;;
25810;SDS011;13645;52.460;13.910;2022-12-26T18:03:46;5.40;;;1.55;;
25810;SDS011;13645;52.460;13.910;2022-12-26T18:06:13;3.15;;;1.35;;
25810;SDS011;13645;52.460;13.910;2022-12-26T18:08:42;1.27;;;1.10;;
25810;SDS011;13645;52.460;13.910;2022-12-26T18:11:10;4.70;;;1.50;;
25810;SDS011;13645;52.460;13.910;2022-12-26T18:13:38;4.28;;;1.50;;
25810;SDS011;13645;52.460;13.910;2022-12-26T18:16:06;2.50;;;1.40;;
25810;SDS011;13645;52.460;13.910;2022-12-26T18:18:37;3.03;;;1.23;;
25810;SDS011;13645;52.460;13.910;2022-12-26T18:21:06;4.10;;;1.38;;
25810;SDS011;13645;52.460;13.910;2022-12-26T18:23:35;2.83;;;1.75;;
25810;SDS011;13645;52.460;13.910;2022-12-26T18:26:07;3.35;;;1.83;;
25810;SDS011;13645;52.460;13.910;2022-12-26T18:28:40;3.53;;;1.40;;
25810;SDS011;13645;52.460;13.910;2022-12-26T18:31:07;3.65;;;2.03;;
25810;SDS011;13645;52.460;13.910;2022-12-26T18:33:39;3.90;;;1.80;;
25810;SDS011;13645;52.460;13.910;2022-12-26T18:36:08;3.10;;;2.05;;
25810;SDS011;13645;52.460;13.910;2022-12-26T18:38:37;5.90;;;1.95;;
25810;SDS011;13645;52.460;13.910;2022-12-26T18:41:04;3.20;;;2.28;;
25810;SDS011;13645;52.460;13.910;2022-12-26T18:43:30;3.80;;;2.03;;
25810;SDS011;13645;52.460;13.910;2022-12-26T18:45:57;4.53;;;1.75;;
25810;SDS011;13645;52.460;13.910;2022-12-26T18:48:24;5.57;;;1.73;;